createdAt,value
2017-12-26T00:00:07.179Z,47.85
2017-12-26T00:02:44.572Z,36.80
2017-12-26T00:05:23.545Z,39.15
2017-12-26T00:07:58.635Z,36.10
2017-12-26T00:10:33.865Z,33.75
2017-12-26T00:13:12.113Z,27.15
2017-12-26T00:15:52.482Z,25.10
2017-12-26T00:18:29.902Z,28.12
2017-12-26T00:26:54.769Z,37.45
2017-12-26T00:29:30.136Z,30.33
2017-12-26T00:32:04.735Z,34.45
2017-12-26T00:34:39.308Z,36.97
2017-12-26T00:37:13.319Z,33.85
2017-12-26T00:39:46.990Z,32.88
2017-12-26T00:42:20.908Z,33.22
2017-12-26T00:44:54.627Z,29.63
2017-12-26T00:47:30.173Z,30.62
2017-12-26T00:50:04.713Z,32.22
2017-12-26T00:52:39.253Z,24.63
2017-12-26T00:55:13.659Z,26.75
2017-12-26T00:57:48.835Z,29.40
2017-12-26T01:00:23.343Z,25.77
2017-12-26T01:03:01.802Z,34.20
2017-12-26T01:05:36.414Z,33.58
2017-12-26T01:08:10.960Z,25.75
2017-12-26T01:10:47.671Z,32.38
2017-12-26T01:13:25.028Z,31.12
2017-12-26T01:15:58.966Z,29.37
2017-12-26T01:18:33.678Z,35.30
2017-12-26T01:21:16.090Z,34.78
2017-12-26T01:23:53.196Z,30.67
2017-12-26T01:26:28.099Z,39.97
2017-12-26T01:29:05.988Z,39.67
2017-12-26T01:31:50.385Z,34.00
2017-12-26T01:34:29.132Z,35.35
2017-12-26T01:37:08.330Z,34.53
2017-12-26T01:39:51.535Z,40.08
2017-12-26T01:48:01.066Z,30.05
2017-12-26T01:50:34.739Z,29.23
2017-12-26T01:53:08.395Z,33.97
2017-12-26T01:55:42.989Z,28.75
2017-12-26T01:58:16.879Z,30.50
2017-12-26T02:00:51.146Z,42.62
2017-12-26T02:03:25.387Z,41.28
2017-12-26T02:06:00.249Z,23.85
2017-12-26T02:08:40.073Z,31.27
2017-12-26T02:11:15.413Z,27.85
2017-12-26T02:13:50.127Z,27.15
2017-12-26T02:16:28.197Z,27.80
2017-12-26T02:19:03.866Z,21.80
2017-12-26T02:21:59.855Z,24.85
2017-12-26T02:24:34.860Z,22.58
2017-12-26T02:43:52.999Z,27.15
2017-12-26T02:49:06.152Z,20.42
2017-12-26T02:51:39.817Z,26.40
2017-12-26T02:54:27.739Z,20.85
2017-12-26T02:57:07.014Z,17.75
2017-12-26T02:59:40.838Z,21.33
2017-12-26T03:02:15.389Z,28.08
2017-12-26T03:04:49.749Z,24.50
2017-12-26T03:07:32.703Z,20.45
2017-12-26T03:10:06.402Z,29.80
2017-12-26T03:12:49.776Z,30.52
2017-12-26T03:15:38.702Z,28.65
2017-12-26T03:18:12.384Z,25.45
2017-12-26T03:20:46.203Z,27.42
2017-12-26T03:23:21.393Z,23.30
2017-12-26T03:25:55.134Z,27.75
2017-12-26T03:28:28.733Z,21.58
2017-12-26T03:31:10.934Z,26.12
2017-12-26T03:33:45.694Z,29.10
2017-12-26T03:36:45.032Z,29.12
2017-12-26T03:39:23.464Z,20.88
2017-12-26T03:42:02.167Z,21.25
2017-12-26T03:44:37.746Z,21.83
2017-12-26T03:47:19.572Z,21.23
2017-12-26T03:49:54.054Z,37.80
2017-12-26T03:52:33.881Z,24.23
2017-12-26T03:55:10.450Z,23.17
2017-12-26T03:57:44.214Z,22.77
2017-12-26T04:00:19.486Z,18.20
2017-12-26T04:02:53.065Z,25.17
2017-12-26T04:05:27.516Z,26.30
2017-12-26T04:08:06.554Z,20.33
2017-12-26T04:10:44.262Z,21.62
2017-12-26T04:13:45.855Z,19.85
2017-12-26T04:16:24.300Z,22.75
2017-12-26T04:19:02.347Z,26.05
2017-12-26T04:21:39.361Z,24.80
2017-12-26T04:24:14.091Z,18.00
2017-12-26T04:26:48.971Z,25.42
2017-12-26T04:29:25.376Z,19.10
2017-12-26T04:32:01.867Z,18.30
2017-12-26T04:34:39.237Z,25.58
2017-12-26T04:37:16.136Z,19.00
2017-12-26T04:40:01.569Z,19.92
2017-12-26T04:42:40.594Z,17.58
2017-12-26T04:45:18.184Z,16.67
2017-12-26T04:47:59.267Z,15.57
2017-12-26T04:50:32.971Z,21.37
2017-12-26T04:53:07.478Z,19.33
2017-12-26T04:55:41.051Z,26.00
2017-12-26T04:58:15.458Z,29.10
2017-12-26T05:00:53.904Z,29.90
2017-12-26T05:03:28.950Z,27.98
2017-12-26T05:06:02.722Z,23.98
2017-12-26T05:08:39.984Z,28.85
2017-12-26T05:11:13.774Z,24.95
2017-12-26T05:13:49.144Z,23.92
2017-12-26T05:16:25.709Z,21.90
2017-12-26T05:19:00.217Z,22.92
2017-12-26T05:21:33.931Z,21.58
2017-12-26T05:24:09.975Z,21.37
2017-12-26T05:26:56.080Z,15.68
2017-12-26T05:32:27.660Z,18.33
2017-12-26T05:35:08.481Z,18.90
2017-12-26T05:37:45.679Z,14.77
2017-12-26T05:40:34.195Z,24.15
2017-12-26T05:43:08.837Z,22.13
2017-12-26T05:45:42.452Z,20.52
2017-12-26T05:48:16.643Z,20.55
2017-12-26T05:51:00.274Z,21.60
2017-12-26T05:53:37.507Z,18.08
2017-12-26T05:56:11.885Z,17.87
2017-12-26T05:58:46.073Z,19.05
2017-12-26T06:01:44.808Z,19.90
2017-12-26T06:07:10.751Z,20.55
2017-12-26T06:09:45.113Z,17.37
2017-12-26T06:12:19.744Z,17.87
2017-12-26T06:14:54.863Z,17.27
2017-12-26T06:17:30.234Z,19.75
2017-12-26T06:20:09.704Z,22.70
2017-12-26T06:22:43.972Z,18.45
2017-12-26T06:25:19.481Z,17.12
2017-12-26T06:27:53.815Z,18.17
2017-12-26T06:30:28.370Z,17.48
2017-12-26T06:33:05.271Z,17.42
2017-12-26T06:35:39.757Z,13.25
2017-12-26T06:38:16.335Z,14.60
2017-12-26T06:40:51.043Z,13.23
2017-12-26T06:43:33.305Z,15.77
2017-12-26T06:46:20.167Z,17.10
2017-12-26T06:48:54.788Z,19.25
2017-12-26T06:51:31.670Z,18.52
2017-12-26T06:54:10.436Z,19.02
2017-12-26T06:57:11.810Z,13.55
2017-12-26T06:59:50.874Z,17.23
2017-12-26T07:02:26.996Z,19.05
2017-12-26T07:05:13.928Z,11.05
2017-12-26T07:07:48.440Z,18.73
2017-12-26T07:10:28.984Z,14.40
2017-12-26T07:13:03.085Z,13.05
2017-12-26T07:15:41.742Z,13.45
2017-12-26T07:18:17.991Z,12.98
2017-12-26T07:21:10.544Z,15.05
2017-12-26T07:23:46.703Z,12.43
2017-12-26T07:26:23.401Z,12.00
2017-12-26T07:28:59.707Z,47.75
2017-12-26T07:31:52.371Z,46.15
2017-12-26T07:34:29.256Z,38.85
2017-12-26T07:37:05.491Z,21.92
2017-12-26T07:42:46.401Z,19.15
2017-12-26T07:45:20.427Z,30.12
2017-12-26T07:47:56.323Z,27.73
2017-12-26T07:50:41.035Z,33.03
2017-12-26T07:53:14.712Z,42.58
2017-12-26T07:55:49.016Z,25.90
2017-12-26T07:58:23.577Z,20.92
2017-12-26T08:00:57.644Z,17.00
2017-12-26T08:03:33.300Z,18.40
2017-12-26T08:06:07.152Z,17.10
2017-12-26T08:08:43.159Z,17.48
2017-12-26T08:14:33.342Z,17.87
2017-12-26T08:19:53.738Z,20.65
2017-12-26T08:22:34.314Z,22.15
2017-12-26T08:25:08.926Z,21.85
2017-12-26T08:27:43.331Z,28.12
2017-12-26T08:30:16.873Z,30.90
2017-12-26T08:32:50.593Z,28.60
2017-12-26T08:35:47.038Z,27.95
2017-12-26T08:38:21.471Z,17.75
2017-12-26T08:41:00.276Z,13.57
2017-12-26T08:43:51.726Z,16.70
2017-12-26T08:46:34.176Z,23.00
2017-12-26T08:49:10.340Z,31.85
2017-12-26T08:51:54.383Z,63.95
2017-12-26T08:54:35.532Z,42.53
2017-12-26T08:57:21.183Z,26.12
2017-12-26T08:59:55.005Z,27.75
2017-12-26T09:02:31.113Z,22.30
2017-12-26T09:05:10.032Z,23.35
2017-12-26T09:07:45.033Z,26.83
2017-12-26T09:10:19.346Z,21.25
2017-12-26T09:12:54.244Z,27.10
2017-12-26T09:15:29.236Z,26.73
2017-12-26T09:18:03.673Z,39.30
2017-12-26T09:20:38.922Z,32.92
2017-12-26T09:23:14.838Z,40.17
2017-12-26T09:25:54.811Z,25.90
2017-12-26T09:28:36.006Z,16.15
2017-12-26T09:31:17.231Z,16.10
2017-12-26T09:33:54.079Z,20.33
2017-12-26T09:36:36.956Z,15.13
2017-12-26T09:42:00.435Z,10.43
2017-12-26T09:44:44.282Z,12.70
2017-12-26T09:47:25.925Z,10.00
2017-12-26T09:50:08.346Z,18.37
2017-12-26T09:52:42.835Z,13.32
2017-12-26T09:55:17.710Z,15.15
2017-12-26T09:57:53.624Z,12.02
2017-12-26T10:00:27.975Z,17.08
2017-12-26T10:03:02.921Z,13.45
2017-12-26T10:05:36.679Z,9.25
2017-12-26T10:08:23.727Z,14.87
2017-12-26T10:11:04.141Z,11.43
2017-12-26T10:16:21.975Z,12.23
2017-12-26T10:18:59.785Z,12.07
2017-12-26T10:21:36.445Z,17.25
2017-12-26T10:24:11.385Z,19.35
2017-12-26T10:26:46.288Z,17.50
2017-12-26T10:29:22.554Z,90.32
2017-12-26T10:31:56.476Z,85.82
2017-12-26T10:34:31.456Z,49.25
2017-12-26T10:37:05.294Z,220.32
2017-12-26T10:39:38.951Z,40.28
2017-12-26T10:42:12.630Z,324.67
2017-12-26T10:44:46.179Z,174.73
2017-12-26T10:47:19.813Z,147.07
2017-12-26T10:49:53.619Z,16.92
2017-12-26T10:52:27.212Z,11.85
2017-12-26T10:55:01.511Z,7.93
2017-12-26T10:57:35.204Z,19.08
2017-12-26T11:00:09.821Z,10.20
2017-12-26T11:02:44.263Z,16.12
2017-12-26T11:05:17.921Z,8.82
2017-12-26T11:07:53.677Z,7.80
2017-12-26T11:10:28.057Z,8.95
2017-12-26T11:13:03.412Z,11.27
2017-12-26T11:18:34.453Z,12.55
2017-12-26T11:21:18.320Z,16.62
2017-12-26T11:26:46.479Z,10.15
2017-12-26T11:32:19.053Z,15.88
2017-12-26T11:35:02.331Z,8.93
2017-12-26T11:37:38.833Z,8.45
2017-12-26T11:40:20.230Z,9.30
2017-12-26T11:42:59.092Z,14.00
2017-12-26T11:45:35.504Z,8.45
2017-12-26T11:48:15.960Z,8.82
2017-12-26T11:50:51.798Z,7.47
2017-12-26T11:53:28.587Z,4.60
2017-12-26T11:56:05.072Z,8.68
2017-12-26T11:58:46.439Z,7.57
2017-12-26T12:01:23.344Z,10.32
2017-12-26T12:04:00.656Z,8.60
2017-12-26T12:09:29.468Z,4.93
2017-12-26T12:12:05.889Z,4.82
2017-12-26T12:14:46.464Z,6.50
2017-12-26T12:17:32.589Z,4.78
2017-12-26T12:20:16.050Z,5.37
2017-12-26T12:25:56.716Z,3.72
2017-12-26T12:31:20.123Z,6.00
2017-12-26T12:34:15.474Z,6.45
2017-12-26T12:36:57.113Z,3.45
2017-12-26T12:39:39.002Z,3.62
2017-12-26T12:42:17.934Z,3.53
2017-12-26T12:44:58.417Z,3.20
2017-12-26T12:47:34.269Z,2.85
2017-12-26T12:50:19.521Z,2.72
2017-12-26T12:52:54.521Z,3.25
2017-12-26T12:55:33.684Z,4.62
2017-12-26T12:58:14.857Z,3.47
2017-12-26T13:01:01.342Z,3.47
2017-12-26T13:03:40.863Z,7.40
2017-12-26T13:06:19.642Z,3.20
2017-12-26T13:09:07.314Z,3.83
2017-12-26T13:11:44.378Z,6.37
2017-12-26T13:14:22.750Z,5.28
2017-12-26T13:17:05.577Z,10.82
2017-12-26T13:19:46.784Z,4.03
2017-12-26T13:22:24.051Z,4.10
2017-12-26T13:25:00.779Z,4.90
2017-12-26T13:27:40.221Z,3.35
2017-12-26T13:30:20.540Z,6.40
2017-12-26T13:32:58.153Z,2.58
2017-12-26T13:35:34.984Z,4.82
2017-12-26T13:38:13.970Z,4.53
2017-12-26T13:40:49.587Z,2.35
2017-12-26T13:43:35.794Z,56.05
2017-12-26T13:46:16.453Z,78.05
2017-12-26T13:48:58.629Z,12.93
2017-12-26T13:54:22.135Z,10.30
2017-12-26T13:57:00.485Z,8.77
2017-12-26T13:59:41.003Z,6.15
2017-12-26T14:02:29.547Z,48.20
2017-12-26T14:05:10.831Z,2.53
2017-12-26T14:07:46.547Z,4.15
2017-12-26T14:10:21.105Z,4.75
2017-12-26T14:12:54.701Z,1.70
2017-12-26T14:15:30.304Z,9.47
2017-12-26T14:18:07.060Z,11.10
2017-12-26T14:20:48.553Z,1.55
2017-12-26T14:23:25.300Z,1.60
2017-12-26T14:26:01.605Z,2.42
2017-12-26T14:28:40.662Z,1.77
2017-12-26T14:31:17.520Z,1.15
2017-12-26T14:33:54.134Z,1.00
2017-12-26T14:36:30.804Z,1.65
2017-12-26T14:39:09.603Z,3.50
2017-12-26T14:41:49.831Z,0.70
2017-12-26T14:44:29.867Z,2.78
2017-12-26T14:47:11.452Z,3.10
2017-12-26T14:49:50.468Z,1.42
2017-12-26T14:52:26.705Z,2.80
2017-12-26T14:55:04.340Z,11.45
2017-12-26T14:57:41.356Z,1.33
2017-12-26T15:00:20.204Z,1.12
2017-12-26T15:02:58.952Z,1.77
2017-12-26T15:05:37.827Z,1.80
2017-12-26T15:08:12.497Z,10.25
2017-12-26T15:10:50.535Z,7.62
2017-12-26T15:13:25.580Z,2.65
2017-12-26T15:16:06.997Z,6.43
2017-12-26T15:18:42.809Z,3.47
2017-12-26T15:21:19.117Z,1.23
2017-12-26T15:23:57.528Z,30.58
2017-12-26T15:26:33.042Z,5.82
2017-12-26T15:29:10.880Z,2.87
2017-12-26T15:31:51.070Z,3.00
2017-12-26T15:34:26.080Z,4.32
2017-12-26T15:37:03.953Z,14.93
2017-12-26T15:39:40.026Z,7.85
2017-12-26T15:42:18.169Z,10.52
2017-12-26T15:45:06.011Z,9.73
2017-12-26T15:47:57.388Z,9.48
2017-12-26T15:53:16.815Z,12.43
2017-12-26T15:55:57.909Z,32.05
2017-12-26T15:58:39.941Z,26.15
2017-12-26T16:01:52.899Z,24.70
2017-12-26T16:07:19.101Z,46.78
2017-12-26T16:10:05.311Z,36.03
2017-12-26T16:12:47.578Z,22.75
2017-12-26T16:15:30.946Z,31.37
2017-12-26T16:18:11.799Z,27.20
2017-12-26T16:23:42.094Z,26.10
2017-12-26T16:26:19.538Z,23.20
2017-12-26T16:28:55.662Z,22.95
2017-12-26T16:34:24.176Z,20.90
2017-12-26T16:37:03.350Z,24.63
2017-12-26T16:39:41.763Z,16.95
2017-12-26T16:45:14.936Z,11.68
2017-12-26T16:47:51.227Z,14.23
2017-12-26T16:50:29.440Z,12.63
2017-12-26T16:53:05.920Z,11.90
2017-12-26T16:55:43.566Z,42.50
2017-12-26T16:58:19.061Z,63.58
2017-12-26T17:00:55.025Z,51.63
2017-12-26T17:03:35.969Z,52.62
2017-12-26T17:06:22.810Z,41.03
2017-12-26T17:08:59.406Z,35.75
2017-12-26T17:11:36.393Z,25.80
2017-12-26T17:14:14.091Z,16.77
2017-12-26T17:16:57.167Z,20.77
2017-12-26T17:19:35.804Z,31.45
2017-12-26T17:22:14.556Z,27.42
2017-12-26T17:24:54.320Z,25.55
2017-12-26T17:27:29.842Z,33.28
2017-12-26T17:30:04.447Z,103.97
2017-12-26T17:32:41.059Z,112.70
2017-12-26T17:35:16.531Z,160.95
2017-12-26T17:37:54.326Z,103.60
2017-12-26T17:40:28.389Z,63.97
2017-12-26T17:43:08.997Z,85.82
2017-12-26T17:45:49.009Z,49.63
2017-12-26T17:48:25.972Z,25.70
2017-12-26T17:51:03.732Z,29.37
2017-12-26T17:53:40.057Z,22.30
2017-12-26T17:56:19.428Z,37.35
2017-12-26T17:58:56.306Z,35.75
2017-12-26T18:01:33.945Z,39.10
2017-12-26T18:04:09.372Z,28.40
2017-12-26T18:06:44.149Z,32.95
2017-12-26T18:09:20.086Z,31.10
2017-12-26T18:11:55.987Z,35.95
2017-12-26T18:14:32.059Z,33.13
2017-12-26T18:17:07.806Z,34.63
2017-12-26T18:19:48.633Z,32.72
2017-12-26T18:22:23.615Z,33.67
2017-12-26T18:24:59.932Z,31.77
2017-12-26T18:27:36.974Z,31.33
2017-12-26T18:30:13.760Z,41.60
2017-12-26T18:32:53.832Z,37.97
2017-12-26T18:35:28.634Z,35.10
2017-12-26T18:38:04.613Z,35.95
2017-12-26T18:40:40.677Z,41.10
2017-12-26T18:43:17.288Z,35.42
2017-12-26T18:45:53.959Z,40.12
2017-12-26T18:52:09.416Z,37.55
2017-12-26T18:54:51.252Z,45.12
2017-12-26T18:57:38.677Z,44.25
2017-12-26T19:00:17.481Z,52.75
2017-12-26T19:02:53.973Z,43.42
2017-12-26T19:05:29.936Z,41.20
2017-12-26T19:08:09.992Z,43.50
2017-12-26T19:10:44.976Z,43.72
2017-12-26T19:13:25.141Z,35.30
2017-12-26T19:15:59.727Z,43.63
2017-12-26T19:18:33.534Z,40.92
2017-12-26T19:21:14.378Z,40.50
2017-12-26T19:23:53.959Z,40.75
2017-12-26T19:26:28.090Z,45.08
2017-12-26T19:29:06.676Z,48.95
2017-12-26T19:31:48.181Z,45.25
2017-12-26T19:34:27.527Z,41.72
2017-12-26T19:37:04.100Z,48.70
2017-12-26T19:39:41.366Z,52.83
2017-12-26T19:42:17.012Z,46.78
2017-12-26T19:44:57.258Z,40.22
2017-12-26T19:47:31.786Z,46.53
2017-12-26T19:50:08.660Z,49.72
2017-12-26T19:52:46.923Z,59.58
2017-12-26T19:55:22.867Z,42.03
2017-12-26T19:58:01.816Z,61.78
2017-12-26T20:00:40.478Z,50.78
2017-12-26T20:03:14.911Z,79.62
2017-12-26T20:05:53.538Z,71.60
2017-12-26T20:08:27.973Z,62.03
2017-12-26T20:11:06.302Z,44.45
2017-12-26T20:13:44.768Z,48.55
2017-12-26T20:16:19.757Z,43.25
2017-12-26T20:18:54.240Z,37.90
2017-12-26T20:21:31.485Z,44.85
2017-12-26T20:24:09.064Z,43.30
2017-12-26T20:26:47.721Z,40.58
2017-12-26T20:29:28.013Z,34.58
2017-12-26T20:32:01.692Z,40.40
2017-12-26T20:34:38.459Z,47.75
2017-12-26T20:37:12.680Z,59.72
2017-12-26T20:39:47.385Z,61.63
2017-12-26T20:42:24.562Z,52.75
2017-12-26T20:44:59.187Z,47.85
2017-12-26T20:47:32.884Z,37.90
2017-12-26T20:50:06.526Z,39.73
2017-12-26T20:52:40.571Z,39.05
2017-12-26T20:55:14.490Z,45.53
2017-12-26T20:57:53.051Z,46.60
2017-12-26T21:00:27.039Z,49.05
2017-12-26T21:03:08.376Z,46.03
2017-12-26T21:05:43.646Z,41.40
2017-12-26T21:08:17.943Z,40.60
2017-12-26T21:10:53.301Z,45.63
2017-12-26T21:13:29.319Z,38.15
2017-12-26T21:16:06.203Z,47.50
2017-12-26T21:18:44.361Z,44.95
2017-12-26T21:21:22.924Z,36.77
2017-12-26T21:24:01.655Z,46.25
2017-12-26T21:26:36.866Z,41.22
2017-12-26T21:29:11.601Z,42.60
2017-12-26T21:31:47.564Z,40.85
2017-12-26T21:34:24.752Z,37.70
2017-12-26T21:37:01.163Z,44.30
2017-12-26T21:39:37.383Z,41.20
2017-12-26T21:42:13.686Z,43.95
2017-12-26T21:44:48.577Z,38.10
2017-12-26T21:47:24.610Z,42.13
2017-12-26T21:49:59.146Z,40.08
2017-12-26T21:52:33.813Z,38.95
2017-12-26T21:55:08.353Z,41.75
2017-12-26T21:57:42.953Z,40.75
2017-12-26T22:00:17.171Z,40.30
2017-12-26T22:02:51.726Z,39.05
2017-12-26T22:05:28.472Z,36.50
2017-12-26T22:08:05.619Z,41.42
2017-12-26T22:10:41.481Z,44.70
2017-12-26T22:13:20.480Z,52.03
2017-12-26T22:15:58.731Z,47.08
2017-12-26T22:18:34.429Z,54.17
2017-12-26T22:21:10.112Z,44.38
2017-12-26T22:23:48.456Z,46.97
2017-12-26T22:26:24.306Z,36.60
2017-12-26T22:29:00.679Z,47.38
2017-12-26T22:31:36.751Z,47.17
2017-12-26T22:34:10.403Z,45.50
2017-12-26T22:36:48.820Z,45.67
2017-12-26T22:39:24.473Z,53.22
2017-12-26T22:42:01.138Z,47.00
2017-12-26T22:44:37.200Z,38.78
2017-12-26T22:47:14.209Z,44.13
2017-12-26T22:49:49.920Z,39.17
2017-12-26T22:52:28.656Z,40.88
2017-12-26T22:55:03.557Z,38.08
2017-12-26T22:57:39.338Z,39.17
2017-12-26T23:02:55.924Z,35.95
2017-12-26T23:05:32.473Z,29.60
2017-12-26T23:08:06.744Z,24.52
2017-12-26T23:10:42.802Z,28.23
2017-12-26T23:13:18.691Z,22.55
2017-12-26T23:15:58.911Z,22.13
2017-12-26T23:18:37.862Z,21.75
2017-12-26T23:21:12.210Z,23.30
2017-12-26T23:23:54.062Z,19.92
2017-12-26T23:26:41.590Z,15.60
2017-12-26T23:29:32.187Z,23.10
2017-12-26T23:32:15.489Z,12.15
2017-12-26T23:38:02.812Z,11.45
2017-12-26T23:40:48.522Z,11.30
2017-12-26T23:43:34.278Z,13.38
2017-12-26T23:46:17.194Z,12.02
2017-12-26T23:48:59.242Z,14.10
2017-12-26T23:51:42.755Z,12.60
